Time;durP1;ratioP1;P1;durP2;ratioP2;P2;SDS_P1;SDS_P2;PMS_P1;PMS_P2;Temp;Humidity;BMP_temperature;BMP_pressure;BME280_temperature;BME280_humidity;BME280_pressure;Samples;Min_cycle;Max_cycle;Signal;HPM_P1;HPM_P2
2023/03/27 00:00:40;;;;;;;1.93;1.67;;;7.60;47.20;;;;;;4923200;29;20448;-74
2023/03/27 00:03:05;;;;;;;2.73;1.97;;;7.60;51.60;;;;;;4930784;29;20520;-74
2023/03/27 00:05:31;;;;;;;1.80;1.70;;;7.60;51.80;;;;;;4930718;29;20860;-74
2023/03/27 00:08:00;;;;;;;2.87;1.90;;;7.60;46.10;;;;;;4931274;29;20283;-73
2023/03/27 00:10:26;;;;;;;2.23;2.03;;;7.30;43.80;;;;;;4928695;29;20185;-74
2023/03/27 00:12:52;;;;;;;1.90;1.70;;;7.40;36.80;;;;;;4930367;29;20433;-74
2023/03/27 00:15:18;;;;;;;1.93;1.47;;;;;;;;;;4929963;29;20496;-74
2023/03/27 00:17:48;;;;;;;3.80;1.87;;;7.20;34.50;;;;;;4931431;29;20220;-73
2023/03/27 00:20:16;;;;;;;2.67;2.23;;;7.20;36.80;;;;;;4927965;29;20523;-74
2023/03/27 00:22:41;;;;;;;2.97;1.90;;;7.10;36.60;;;;;;4929525;29;20864;-73
2023/03/27 00:25:09;;;;;;;2.60;1.93;;;7.00;34.50;;;;;;4930674;29;20433;-74
2023/03/27 00:27:35;;;;;;;4.23;1.80;;;7.00;36.60;;;;;;4926397;29;20201;-74
2023/03/27 00:30:00;;;;;;;4.27;2.30;;;7.00;36.60;;;;;;4926632;29;20456;-74
2023/03/27 00:32:26;;;;;;;4.47;1.97;;;7.00;36.80;;;;;;4931317;29;20268;-73
2023/03/27 00:34:52;;;;;;;2.97;2.10;;;;;;;;;;4933989;29;20213;-73
2023/03/27 00:37:17;;;;;;;7.17;2.40;;;7.00;34.50;;;;;;4934234;29;20189;-74
2023/03/27 00:39:48;;;;;;;2.20;2.00;;;7.00;44.00;;;;;;4927377;29;20457;-74
2023/03/27 00:42:21;;;;;;;4.17;2.10;;;7.00;47.30;;;;;;4932315;29;20560;-73
2023/03/27 00:44:48;;;;;;;3.97;3.00;;;7.10;50.80;;;;;;4933928;29;20616;-74
2023/03/27 00:47:15;;;;;;;5.63;3.03;;;7.00;34.40;;;;;;4933949;29;20456;-74
2023/03/27 00:49:41;;;;;;;7.10;3.80;;;7.00;36.80;;;;;;4933890;29;20984;-73
2023/03/27 00:52:07;;;;;;;6.77;3.60;;;6.90;36.50;;;;;;4933275;29;20436;-73
2023/03/27 00:54:37;;;;;;;10.70;3.70;;;6.80;36.20;;;;;;4927911;29;20216;-74
2023/03/27 00:57:08;;;;;;;10.30;4.27;;;6.70;34.10;;;;;;4933469;29;20456;-74
2023/03/27 00:59:38;;;;;;;13.33;4.30;;;6.70;36.30;;;;;;4928503;29;20624;-73
2023/03/27 01:02:05;;;;;;;12.47;4.53;;;6.60;28.10;;;;;;4934593;29;20433;-73
2023/03/27 01:04:32;;;;;;;9.03;4.97;;;6.50;32.20;;;;;;4927073;29;20441;-74
2023/03/27 01:06:59;;;;;;;10.90;4.77;;;6.50;22.70;;;;;;4933329;29;20464;-74
2023/03/27 01:09:25;;;;;;;8.73;4.87;;;6.40;23.60;;;;;;4931469;29;20457;-73
2023/03/27 01:12:10;;;;;;;12.10;5.10;;;6.40;24.00;;;;;;4933447;29;20993;-73
2023/03/27 01:14:57;;;;;;;12.90;4.70;;;6.40;24.20;;;;;;4934013;29;20465;-72
2023/03/27 01:17:37;;;;;;;16.70;5.00;;;6.30;24.30;;;;;;4933064;29;20471;-74
2023/03/27 01:20:15;;;;;;;13.10;4.47;;;6.30;18.50;;;;;;4934134;29;20796;-74
2023/03/27 01:23:18;;;;;;;13.53;4.50;;;6.30;15.50;;;;;;4932441;29;20445;-73
2023/03/27 01:25:57;;;;;;;12.17;4.90;;;6.20;16.10;;;;;;4918653;29;20982;-73
2023/03/27 01:28:53;;;;;;;17.67;4.90;;;6.20;17.60;;;;;;4929727;29;20437;-73
2023/03/27 01:32:04;;;;;;;14.63;5.00;;;6.20;14.00;;;;;;4931242;29;20452;-73
2023/03/27 01:34:41;;;;;;;14.80;4.53;;;6.20;17.70;;;;;;4932918;29;20530;-73
2023/03/27 01:37:34;;;;;;;13.23;4.80;;;6.20;15.50;;;;;;4933186;29;20453;-74
2023/03/27 01:40:06;;;;;;;12.97;4.90;;;6.20;19.70;;;;;;4926108;29;20836;-74
2023/03/27 01:42:45;;;;;;;20.13;4.70;;;6.20;19.60;;;;;;4923970;28;21020;-74
2023/03/27 01:45:23;;;;;;;17.23;4.97;;;6.20;16.10;;;;;;4932299;29;20452;-73
2023/03/27 01:47:59;;;;;;;15.63;4.70;;;6.20;15.70;;;;;;4932393;29;20523;-73
2023/03/27 01:50:43;;;;;;;12.60;4.20;;;6.20;8.40;;;;;;4930443;29;20523;-74
2023/03/27 01:53:27;;;;;;;11.80;4.20;;;6.20;8.60;;;;;;4932713;29;20429;-74
2023/03/27 01:55:59;;;;;;;14.13;4.70;;;6.10;1.60;;;;;;4933042;29;20496;-74
2023/03/27 01:58:32;;;;;;;13.97;4.67;;;6.20;5.10;;;;;;4932448;29;20449;-74
2023/03/27 02:01:00;;;;;;;11.23;4.27;;;6.30;4.30;;;;;;4931503;29;20441;-74
2023/03/27 02:03:34;;;;;;;10.60;3.90;;;6.30;1.00;;;;;;4932319;29;20432;-74
2023/03/27 02:06:08;;;;;;;10.90;3.43;;;6.30;1.00;;;;;;4932143;29;20445;-74
2023/03/27 02:08:41;;;;;;;12.50;4.03;;;6.30;1.00;;;;;;4927825;29;20462;-74
2023/03/27 02:11:07;;;;;;;12.20;3.80;;;6.30;1.00;;;;;;4933066;29;20504;-73
2023/03/27 02:13:44;;;;;;;5.77;3.23;;;6.20;1.00;;;;;;4930864;29;20840;-74
2023/03/27 02:16:13;;;;;;;14.47;3.57;;;6.20;1.00;;;;;;4926696;29;20288;-72
2023/03/27 02:18:46;;;;;;;11.87;3.33;;;6.20;1.00;;;;;;4933287;29;20456;-73
2023/03/27 02:21:13;;;;;;;6.33;2.47;;;6.20;1.00;;;;;;4931882;29;20512;-73
2023/03/27 02:23:39;;;;;;;10.00;2.93;;;6.20;1.00;;;;;;4932211;29;20441;-74
2023/03/27 02:26:05;;;;;;;8.60;2.40;;;6.20;1.00;;;;;;4932328;29;20959;-75
2023/03/27 02:28:56;;;;;;;7.77;2.87;;;6.30;1.00;;;;;;4930770;29;20429;-74
2023/03/27 02:31:54;;;;;;;12.23;2.70;;;6.10;1.00;;;;;;4918243;29;20205;-74
2023/03/27 02:34:39;;;;;;;12.90;2.60;;;6.20;1.00;;;;;;4931289;29;20469;-73
2023/03/27 02:37:24;;;;;;;6.00;2.90;;;6.30;1.00;;;;;;4928193;29;20484;-73
2023/03/27 02:40:14;;;;;;;6.73;2.77;;;6.20;1.00;;;;;;4926194;29;20612;-73
2023/03/27 02:43:06;;;;;;;10.50;2.30;;;6.10;1.00;;;;;;4932782;29;20515;-74
2023/03/27 02:45:43;;;;;;;10.53;2.50;;;6.00;1.00;;;;;;4930021;29;20884;-74
2023/03/27 02:48:16;;;;;;;8.73;2.43;;;6.00;1.00;;;;;;4931634;29;20436;-72
2023/03/27 02:50:52;;;;;;;11.50;4.47;;;5.90;1.00;;;;;;4931797;29;20449;-73
2023/03/27 02:53:21;;;;;;;10.13;2.30;;;5.80;1.00;;;;;;4930922;29;20468;-74
2023/03/27 02:55:56;;;;;;;5.43;2.07;;;5.80;1.00;;;;;;4931723;29;20555;-73
2023/03/27 02:58:36;;;;;;;16.23;2.33;;;5.80;1.00;;;;;;4932168;29;20425;-74
2023/03/27 03:01:04;;;;;;;11.00;2.43;;;5.70;1.00;;;;;;4928771;29;20789;-74
2023/03/27 03:03:36;;;;;;;8.60;2.23;;;5.70;1.00;;;;;;4931291;29;20435;-74
2023/03/27 03:06:06;;;;;;;10.03;2.00;;;5.60;1.00;;;;;;4930957;29;20572;-74
2023/03/27 03:08:37;;;;;;;5.00;1.80;;;5.60;1.00;;;;;;4931405;29;21322;-74
2023/03/27 03:11:05;;;;;;;4.17;1.83;;;5.60;1.00;;;;;;4931687;29;20440;-74
2023/03/27 03:13:31;;;;;;;9.40;2.20;;;5.50;1.00;;;;;;4931055;29;20447;-74
2023/03/27 03:15:57;;;;;;;7.23;1.87;;;5.50;1.00;;;;;;4930581;29;20453;-74
2023/03/27 03:18:23;;;;;;;12.30;2.67;;;5.40;1.00;;;;;;4929982;29;20186;-74
2023/03/27 03:20:52;;;;;;;7.70;2.63;;;5.40;1.00;;;;;;4931236;29;20432;-74
2023/03/27 03:23:20;;;;;;;6.67;1.83;;;5.20;1.00;;;;;;4931214;29;20553;-73
2023/03/27 03:25:46;;;;;;;10.23;2.03;;;5.10;1.00;;;;;;4930930;29;20460;-73
2023/03/27 03:28:12;;;;;;;7.80;1.70;;;5.00;1.00;;;;;;4929760;29;21334;-74
2023/03/27 03:30:42;;;;;;;10.53;2.27;;;4.90;1.00;;;;;;4929706;29;20473;-74
2023/03/27 03:33:08;;;;;;;13.00;2.43;;;4.70;1.00;;;;;;4931694;29;20192;-74
2023/03/27 03:35:34;;;;;;;6.33;1.70;;;4.60;1.00;;;;;;4929954;29;20492;-74
2023/03/27 03:37:59;;;;;;;6.17;1.93;;;4.60;1.00;;;;;;4930347;29;20440;-74
2023/03/27 03:40:25;;;;;;;8.83;1.70;;;4.50;1.00;;;;;;4929846;29;20185;-73
2023/03/27 03:42:51;;;;;;;14.80;2.27;;;4.40;1.00;;;;;;4930812;29;20381;-74
2023/03/27 03:45:18;;;;;;;5.77;1.80;;;4.30;1.00;;;;;;4929930;29;20551;-74
2023/03/27 03:47:44;;;;;;;4.23;1.83;;;4.30;1.00;;;;;;4931108;29;20449;-74
2023/03/27 03:50:11;;;;;;;7.03;2.10;;;4.20;1.00;;;;;;4928717;29;20459;-75
2023/03/27 03:52:37;;;;;;;6.33;2.00;;;4.20;1.00;;;;;;4930752;29;20425;-74
2023/03/27 03:55:03;;;;;;;6.33;2.03;;;4.20;1.00;;;;;;4930656;29;20519;-73
2023/03/27 03:57:29;;;;;;;10.10;2.70;;;4.20;1.00;;;;;;4931052;29;20429;-74
2023/03/27 03:59:57;;;;;;;20.53;3.27;;;4.10;1.00;;;;;;4928217;29;20507;-74
2023/03/27 04:02:29;;;;;;;7.63;2.10;;;4.10;1.00;;;;;;4929198;29;20572;-74
2023/03/27 04:04:56;;;;;;;4.40;1.90;;;4.10;1.00;;;;;;4930933;29;20448;-74
2023/03/27 04:07:22;;;;;;;8.87;1.90;;;4.10;1.00;;;;;;4933881;29;20451;-74
2023/03/27 04:09:51;;;;;;;8.73;2.83;;;4.10;1.00;;;;;;4935013;29;20441;-74
2023/03/27 04:12:17;;;;;;;4.13;1.80;;;4.00;1.00;;;;;;4934308;29;20268;-73
2023/03/27 04:14:43;;;;;;;12.50;2.07;;;4.00;1.00;;;;;;4935377;29;20514;-74
2023/03/27 04:17:10;;;;;;;8.87;2.00;;;4.00;1.00;;;;;;4933063;29;20995;-74
2023/03/27 04:19:35;;;;;;;7.67;2.50;;;4.00;1.00;;;;;;4934752;29;20448;-73
2023/03/27 04:22:02;;;;;;;6.17;1.80;;;4.00;1.00;;;;;;4933305;29;20440;-74
2023/03/27 04:24:29;;;;;;;7.23;1.70;;;4.00;1.00;;;;;;4934855;29;20509;-73
2023/03/27 04:27:00;;;;;;;11.27;2.13;;;4.00;1.00;;;;;;4934209;29;20987;-74
2023/03/27 04:29:29;;;;;;;8.67;2.33;;;4.00;1.00;;;;;;4933711;29;20451;-73
2023/03/27 04:31:56;;;;;;;5.90;2.00;;;4.10;1.00;;;;;;4935419;29;20776;-74
2023/03/27 04:34:22;;;;;;;7.30;2.00;;;4.10;1.00;;;;;;4933857;29;20619;-74
2023/03/27 04:36:49;;;;;;;7.47;2.10;;;4.10;1.00;;;;;;4925676;29;20955;-74
2023/03/27 04:39:16;;;;;;;6.90;1.97;;;4.10;1.00;;;;;;4934178;29;20543;-74
2023/03/27 04:41:47;;;;;;;8.60;2.30;;;4.20;1.00;;;;;;4934428;29;20428;-74
2023/03/27 04:44:13;;;;;;;8.60;2.73;;;4.20;1.00;;;;;;4934149;29;20766;-74
2023/03/27 04:46:40;;;;;;;5.23;1.90;;;4.10;1.00;;;;;;4934491;29;20956;-74
2023/03/27 04:49:05;;;;;;;8.60;2.47;;;4.20;1.00;;;;;;4932495;29;20440;-74
2023/03/27 04:51:31;;;;;;;5.87;2.00;;;4.20;1.00;;;;;;4932687;29;20448;-74
2023/03/27 04:53:56;;;;;;;11.23;2.53;;;4.10;1.00;;;;;;4933087;29;20580;-74
2023/03/27 04:56:22;;;;;;;7.57;3.23;;;4.10;1.00;;;;;;4933884;29;20219;-73
2023/03/27 04:58:48;;;;;;;5.43;2.00;;;4.10;1.00;;;;;;4933221;29;20189;-74
2023/03/27 05:01:14;;;;;;;5.57;2.30;;;4.10;1.00;;;;;;4934317;29;20264;-74
2023/03/27 05:03:39;;;;;;;4.73;2.23;;;4.00;1.00;;;;;;4931927;29;20356;-74
2023/03/27 05:06:07;;;;;;;10.37;2.77;;;4.00;1.00;;;;;;4934080;29;20875;-74
2023/03/27 05:08:32;;;;;;;7.50;1.73;;;4.00;1.00;;;;;;4931878;29;20245;-74
2023/03/27 05:10:58;;;;;;;10.33;2.60;;;4.00;1.00;;;;;;4934169;29;20852;-74
2023/03/27 05:13:23;;;;;;;8.70;2.20;;;3.90;1.00;;;;;;4931479;29;20182;-74
2023/03/27 05:15:49;;;;;;;9.63;2.00;;;3.90;1.00;;;;;;4933463;29;20644;-74
2023/03/27 05:18:15;;;;;;;5.87;2.03;;;3.90;1.00;;;;;;4931889;29;20197;-74
2023/03/27 05:20:42;;;;;;;9.10;2.13;;;3.90;1.00;;;;;;4933547;29;20660;-74
2023/03/27 05:23:09;;;;;;;6.77;2.30;;;3.80;1.00;;;;;;4933889;29;20659;-74
2023/03/27 05:25:35;;;;;;;12.67;2.40;;;3.80;1.00;;;;;;4931703;29;21049;-74
2023/03/27 05:28:00;;;;;;;8.67;2.60;;;3.80;1.00;;;;;;4932633;29;20441;-74
2023/03/27 05:30:28;;;;;;;7.30;2.20;;;3.70;1.00;;;;;;4930696;29;20185;-74
2023/03/27 05:32:53;;;;;;;8.90;2.23;;;3.70;1.00;;;;;;4931547;29;20321;-73
2023/03/27 05:35:22;;;;;;;7.43;2.37;;;3.60;1.00;;;;;;4931981;29;21022;-73
2023/03/27 05:37:49;;;;;;;8.23;2.27;;;3.60;1.00;;;;;;4933198;29;20185;-73
2023/03/27 05:40:16;;;;;;;8.47;2.30;;;3.70;1.00;;;;;;4931091;29;20441;-73
2023/03/27 05:42:44;;;;;;;11.37;2.10;;;3.70;1.00;;;;;;4932343;29;20769;-74
2023/03/27 05:45:10;;;;;;;7.67;2.43;;;3.70;1.00;;;;;;4930322;29;20448;-74
2023/03/27 05:47:51;;;;;;;6.80;2.30;;;3.70;1.00;;;;;;4933285;29;20425;-75
2023/03/27 05:50:18;;;;;;;11.70;2.67;;;3.70;1.00;;;;;;4930303;29;20971;-74
2023/03/27 05:52:45;;;;;;;7.10;2.20;;;3.70;1.00;;;;;;4931517;29;20437;-74
2023/03/27 05:55:11;;;;;;;8.33;2.60;;;3.80;1.00;;;;;;4930381;29;20975;-74
2023/03/27 05:57:40;;;;;;;7.27;2.13;;;3.80;1.00;;;;;;4931073;29;20515;-74
2023/03/27 06:00:10;;;;;;;6.10;2.33;;;3.80;1.00;;;;;;4929993;29;20439;-74
2023/03/27 06:02:36;;;;;;;6.40;2.10;;;3.90;1.00;;;;;;4932998;29;20774;-74
2023/03/27 06:05:03;;;;;;;8.67;2.03;;;4.00;1.00;;;;;;4932052;29;20471;-74
2023/03/27 06:07:29;;;;;;;12.57;2.10;;;3.90;1.00;;;;;;4932026;29;20468;-74
2023/03/27 06:09:55;;;;;;;9.30;2.43;;;3.90;1.00;;;;;;4926399;29;20957;-73
2023/03/27 06:12:22;;;;;;;13.10;2.90;;;3.90;1.00;;;;;;4931204;29;20189;-75
2023/03/27 06:14:48;;;;;;;11.23;2.40;;;4.00;1.00;;;;;;4929305;29;20548;-75
2023/03/27 06:17:14;;;;;;;10.50;3.27;;;4.10;1.00;;;;;;4931240;29;20615;-75
2023/03/27 06:19:39;;;;;;;5.73;2.10;;;4.20;1.00;;;;;;4931268;29;20185;-75
2023/03/27 06:22:06;;;;;;;7.60;1.93;;;4.40;1.00;;;;;;4933339;29;20185;-75
2023/03/27 06:24:32;;;;;;;11.57;2.47;;;4.80;1.00;;;;;;4932459;29;20253;-75
2023/03/27 06:26:57;;;;;;;6.80;2.00;;;5.50;1.00;;;;;;4931491;29;20476;-75
2023/03/27 06:29:27;;;;;;;9.27;2.17;;;6.00;1.00;;;;;;4927861;29;20448;-75
2023/03/27 06:31:56;;;;;;;7.93;2.17;;;6.50;1.00;;;;;;4933118;29;20548;-75
2023/03/27 06:34:22;;;;;;;7.30;2.10;;;6.40;1.00;;;;;;4931378;29;20469;-75
2023/03/27 06:36:48;;;;;;;5.80;1.90;;;6.40;1.00;;;;;;4930336;29;20525;-75
2023/03/27 06:39:14;;;;;;;12.00;2.20;;;6.30;1.00;;;;;;4933711;29;20181;-75
2023/03/27 06:41:40;;;;;;;6.03;2.20;;;6.10;1.00;;;;;;4932580;29;20429;-75
2023/03/27 06:44:06;;;;;;;9.07;2.90;;;6.10;1.00;;;;;;4931846;29;20927;-75
2023/03/27 06:46:32;;;;;;;9.73;2.60;;;6.30;1.00;;;;;;4930787;29;20201;-75
2023/03/27 06:48:57;;;;;;;11.63;4.67;;;6.30;1.00;;;;;;4931867;29;20212;-75
2023/03/27 06:51:25;;;;;;;11.30;2.83;;;6.50;1.00;;;;;;4931862;29;20189;-75
2023/03/27 06:53:52;;;;;;;6.33;2.50;;;6.60;1.00;;;;;;4928029;29;20556;-75
2023/03/27 06:56:17;;;;;;;7.47;2.30;;;6.90;1.00;;;;;;4932764;29;20449;-75
2023/03/27 06:58:43;;;;;;;14.13;3.70;;;6.90;1.00;;;;;;4932320;29;20456;-75
2023/03/27 07:01:09;;;;;;;22.43;5.70;;;6.90;1.00;;;;;;4930997;29;20187;-75
2023/03/27 07:03:34;;;;;;;16.40;3.47;;;7.00;1.00;;;;;;4931237;29;20194;-75
2023/03/27 07:06:00;;;;;;;8.30;2.80;;;7.10;1.00;;;;;;4932455;29;20201;-75
2023/03/27 07:08:26;;;;;;;9.33;2.33;;;7.00;1.00;;;;;;4932662;29;20267;-75
2023/03/27 07:10:53;;;;;;;9.03;2.47;;;5.50;1.00;;;;;;4931143;29;21067;-75
2023/03/27 07:13:18;;;;;;;10.53;3.07;;;7.00;1.00;;;;;;4931341;29;20437;-75
2023/03/27 07:15:44;;;;;;;9.60;2.80;;;6.90;1.00;;;;;;4931644;29;20469;-75
2023/03/27 07:18:10;;;;;;;13.60;3.00;;;6.90;1.00;;;;;;4932790;29;20653;-75
2023/03/27 07:20:36;;;;;;;9.60;2.83;;;7.00;1.00;;;;;;4932155;29;20448;-75
2023/03/27 07:23:02;;;;;;;9.27;2.80;;;7.20;1.00;;;;;;4932628;29;20185;-76
2023/03/27 07:25:35;;;;;;;10.07;3.27;;;7.70;1.00;;;;;;4930347;29;20828;-75
2023/03/27 07:28:03;;;;;;;7.17;2.27;;;8.40;1.00;;;;;;4930670;29;20237;-76
2023/03/27 07:30:28;;;;;;;10.33;2.50;;;8.90;1.00;;;;;;4923987;29;20525;-75
2023/03/27 07:32:54;;;;;;;15.30;2.37;;;9.20;1.00;;;;;;4933014;29;20521;-75
2023/03/27 07:35:19;;;;;;;12.00;2.80;;;9.00;1.00;;;;;;4932220;29;20292;-76
2023/03/27 07:37:45;;;;;;;7.77;2.73;;;9.30;1.00;;;;;;4929489;29;20193;-73
2023/03/27 07:40:12;;;;;;;10.50;2.30;;;10.10;1.00;;;;;;4930005;29;20177;-76
2023/03/27 07:42:44;;;;;;;8.50;2.53;;;11.20;1.00;;;;;;4929025;29;20619;-76
2023/03/27 07:45:13;;;;;;;8.70;2.33;;;12.50;1.00;;;;;;4929726;29;20539;-77
2023/03/27 07:47:41;;;;;;;6.90;2.60;;;12.60;1.00;;;;;;4929123;29;20529;-76
2023/03/27 07:50:10;;;;;;;7.23;2.50;;;13.30;1.00;;;;;;4930463;29;20429;-76
2023/03/27 07:52:35;;;;;;;7.30;2.30;;;13.50;1.00;;;;;;4930912;29;20437;-77
2023/03/27 07:55:02;;;;;;;13.03;2.80;;;12.90;1.00;;;;;;4930012;29;20471;-76
2023/03/27 07:57:28;;;;;;;7.73;2.30;;;12.80;1.00;;;;;;4931159;29;20177;-77
2023/03/27 07:59:56;;;;;;;5.03;2.30;;;13.40;1.00;;;;;;4930095;29;20429;-76
2023/03/27 08:02:22;;;;;;;7.77;2.30;;;13.50;1.00;;;;;;4929863;29;20184;-76
2023/03/27 08:04:47;;;;;;;8.50;2.53;;;13.00;1.00;;;;;;4930676;29;20432;-76
2023/03/27 08:07:13;;;;;;;8.83;2.40;;;13.40;1.00;;;;;;4929789;29;20204;-76
2023/03/27 08:09:39;;;;;;;11.23;3.10;;;13.20;1.00;;;;;;4930367;29;20185;-76
2023/03/27 08:12:06;;;;;;;8.93;2.30;;;12.70;1.00;;;;;;4930074;29;20197;-76
2023/03/27 08:14:32;;;;;;;9.70;2.83;;;12.90;1.00;;;;;;4930100;29;20204;-75
2023/03/27 08:16:57;;;;;;;8.40;3.03;;;13.70;1.00;;;;;;4930319;29;20820;-75
2023/03/27 08:19:24;;;;;;;8.33;2.63;;;14.20;1.00;;;;;;4931307;29;20604;-77
2023/03/27 08:21:49;;;;;;;9.57;3.20;;;15.70;1.00;;;;;;4929813;29;20205;-77
2023/03/27 08:24:15;;;;;;;6.13;2.77;;;14.80;1.00;;;;;;4932064;29;20540;-77
2023/03/27 08:26:41;;;;;;;7.37;2.50;;;14.50;1.00;;;;;;4945665;28;20576;-76
2023/03/27 08:29:07;;;;;;;9.63;2.77;;;15.00;1.00;;;;;;4930079;29;20200;-76
2023/03/27 08:31:33;;;;;;;11.43;3.00;;;14.80;1.00;;;;;;4931274;29;20427;-76
2023/03/27 08:33:58;;;;;;;6.77;2.70;;;15.00;1.00;;;;;;4931833;29;20477;-77
2023/03/27 08:36:24;;;;;;;10.70;3.30;;;14.80;1.00;;;;;;4930917;29;20205;-76
2023/03/27 08:38:50;;;;;;;9.37;2.80;;;15.30;1.00;;;;;;4931158;29;20688;-76
2023/03/27 08:41:37;;;;;;;9.20;3.17;;;16.30;1.00;;;;;;4931218;29;20201;-75
2023/03/27 08:44:08;;;;;;;10.43;2.83;;;17.70;1.00;;;;;;4924802;29;20197;-75
2023/03/27 08:46:58;;;;;;;11.00;3.10;;;17.80;1.00;;;;;;4930087;29;20453;-76
2023/03/27 08:49:27;;;;;;;9.07;2.70;;;17.00;1.00;;;;;;4931744;29;20428;-76
2023/03/27 08:51:59;;;;;;;8.77;2.53;;;17.40;1.00;;;;;;4930823;29;20560;-77
2023/03/27 08:54:29;;;;;;;8.17;2.73;;;16.80;1.00;;;;;;4934957;29;20998;-76
2023/03/27 08:56:55;;;;;;;10.67;2.80;;;16.90;1.00;;;;;;4934057;29;20452;-77
2023/03/27 08:59:24;;;;;;;8.00;2.77;;;17.50;1.00;;;;;;4934582;29;20429;-76
2023/03/27 09:02:12;;;;;;;6.67;2.23;;;17.50;1.00;;;;;;4932969;29;20193;-76
2023/03/27 09:05:03;;;;;;;12.30;2.80;;;16.10;1.00;;;;;;4932435;29;20452;-75
2023/03/27 09:07:47;;;;;;;7.13;2.20;;;14.60;1.00;;;;;;4935377;29;20436;-76
2023/03/27 09:10:33;;;;;;;5.37;1.80;;;14.00;1.00;;;;;;4934782;29;20472;-76
2023/03/27 09:13:07;;;;;;;6.50;2.30;;;13.80;1.00;;;;;;4927105;29;20468;-75
2023/03/27 09:16:10;;;;;;;12.33;2.40;;;16.30;1.00;;;;;;4933393;29;20469;-76
2023/03/27 09:18:43;;;;;;;8.10;2.47;;;18.90;1.00;;;;;;4927114;29;20468;-75
2023/03/27 09:21:34;;;;;;;7.10;2.80;;;17.80;1.00;;;;;;4933779;29;20417;-76
2023/03/27 09:24:03;;;;;;;15.70;2.80;;;16.40;1.00;;;;;;4930539;29;20427;-76
2023/03/27 09:26:34;;;;;;;5.33;2.33;;;14.70;1.00;;;;;;4934335;29;20481;-75
2023/03/27 09:29:30;;;;;;;7.70;2.20;;;14.70;1.00;;;;;;4927048;29;20928;-75
2023/03/27 09:31:57;;;;;;;5.63;2.03;;;14.90;1.00;;;;;;4924638;29;20490;-76
2023/03/27 09:34:26;;;;;;;12.93;2.53;;;14.70;1.00;;;;;;4927999;29;20476;-77
2023/03/27 09:36:53;;;;;;;4.83;2.30;;;16.10;1.00;;;;;;4933014;29;20461;-77
2023/03/27 09:39:26;;;;;;;5.47;2.23;;;16.80;1.00;;;;;;4934133;29;20433;-76
2023/03/27 09:41:56;;;;;;;7.50;2.07;;;16.00;1.00;;;;;;4932950;29;20445;-77
2023/03/27 09:44:26;;;;;;;7.10;2.07;;;14.90;1.00;;;;;;4931228;29;20463;-77
2023/03/27 09:47:09;;;;;;;10.87;2.20;;;14.40;1.00;;;;;;4930147;29;20468;-77
2023/03/27 09:49:39;;;;;;;9.37;2.17;;;14.30;1.00;;;;;;4932548;29;20535;-75
2023/03/27 09:52:06;;;;;;;6.33;2.30;;;14.20;1.00;;;;;;4932544;29;20769;-76
2023/03/27 09:54:50;;;;;;;8.53;1.80;;;14.70;1.00;;;;;;4932854;29;20460;-77
2023/03/27 09:57:16;;;;;;;7.13;2.30;;;16.80;1.00;;;;;;4930871;29;20987;-77
2023/03/27 09:59:57;;;;;;;5.30;2.27;;;17.00;1.00;;;;;;4930628;29;20448;-77
2023/03/27 10:02:27;;;;;;;6.87;2.13;;;15.80;1.00;;;;;;4931781;29;20181;-77
2023/03/27 10:05:02;;;;;;;8.70;1.90;;;15.80;1.00;;;;;;4932200;29;20944;-77
2023/03/27 10:07:28;;;;;;;3.20;2.07;;;16.10;1.00;;;;;;4932932;29;20476;-77
2023/03/27 10:10:10;;;;;;;5.10;1.97;;;15.90;1.00;;;;;;4930258;29;21069;-76
2023/03/27 10:12:37;;;;;;;5.10;2.27;;;16.00;1.00;;;;;;4930660;29;20547;-77
2023/03/27 10:15:06;;;;;;;5.87;2.10;;;17.50;1.00;;;;;;4931193;29;20496;-78
2023/03/27 10:17:39;;;;;;;4.73;2.10;;;17.40;1.00;;;;;;4931615;29;20502;-76
2023/03/27 10:20:12;;;;;;;6.83;2.30;;;17.60;1.00;;;;;;4933164;29;20429;-76
2023/03/27 10:22:40;;;;;;;5.70;2.20;;;17.80;1.00;;;;;;4932505;29;20428;-77
2023/03/27 10:25:16;;;;;;;6.40;2.40;;;17.60;1.00;;;;;;4929920;29;20441;-75
2023/03/27 10:27:42;;;;;;;5.43;2.10;;;17.70;1.00;;;;;;4930784;29;20440;-75
2023/03/27 10:30:24;;;;;;;10.03;2.27;;;18.50;1.00;;;;;;4931460;29;20520;-75
2023/03/27 10:32:50;;;;;;;7.83;3.10;;;18.90;1.00;;;;;;4928521;29;20963;-75
2023/03/27 10:35:30;;;;;;;8.17;2.30;;;19.80;1.00;;;;;;4923122;29;20479;-75
2023/03/27 10:37:57;;;;;;;5.47;2.17;;;18.80;1.00;;;;;;4916430;28;20853;-76
2023/03/27 10:40:29;;;;;;;6.97;2.10;;;16.90;1.00;;;;;;4931216;29;20448;-76
2023/03/27 10:42:58;;;;;;;6.07;2.03;;;15.60;1.00;;;;;;4945728;28;20552;-76
2023/03/27 10:45:24;;;;;;;8.43;2.53;;;14.50;1.00;;;;;;4931661;29;20564;-75
2023/03/27 10:47:53;;;;;;;8.23;2.33;;;14.30;1.00;;;;;;4927091;29;21030;-75
2023/03/27 10:50:23;;;;;;;4.27;2.00;;;14.10;1.00;;;;;;4929414;29;20620;-75
2023/03/27 10:53:11;;;;;;;6.83;2.13;;;13.70;1.00;;;;;;4932197;29;20449;-76
2023/03/27 10:55:47;;;;;;;3.40;1.83;;;15.50;1.00;;;;;;4929822;29;20888;-75
2023/03/27 10:58:38;;;;;;;10.40;2.47;;;18.90;1.00;;;;;;4923431;29;20971;-76
2023/03/27 11:01:10;;;;;;;8.00;2.70;;;19.40;1.00;;;;;;4929118;29;20440;-76
2023/03/27 11:03:58;;;;;;;5.73;2.13;;;18.80;1.00;;;;;;4944680;28;20477;-76
2023/03/27 11:06:29;;;;;;;5.93;2.10;;;17.80;1.00;;;;;;4931076;29;20465;-77
2023/03/27 11:09:04;;;;;;;8.60;2.60;;;16.70;1.00;;;;;;4930611;29;20440;-75
2023/03/27 11:11:51;;;;;;;7.40;2.90;;;16.30;1.00;;;;;;4927677;29;20421;-76
2023/03/27 11:14:22;;;;;;;8.43;2.93;;;18.80;1.00;;;;;;4929385;29;20464;-76
2023/03/27 11:16:57;;;;;;;6.00;2.27;;;21.70;1.00;;;;;;4930320;29;20536;-76
2023/03/27 11:19:34;;;;;;;10.73;2.80;;;23.10;1.00;;;;;;4946269;28;20443;-77
2023/03/27 11:22:10;;;;;;;10.23;2.90;;;23.40;1.00;;;;;;4928894;29;20448;-77
2023/03/27 11:24:43;;;;;;;8.00;2.43;;;20.70;1.00;;;;;;4930289;29;20481;-77
2023/03/27 11:27:35;;;;;;;7.63;2.53;;;17.80;1.00;;;;;;4931807;29;20479;-77
2023/03/27 11:30:07;;;;;;;5.33;2.50;;;15.60;1.00;;;;;;4926558;29;20563;-76
2023/03/27 11:32:51;;;;;;;7.20;2.60;;;13.90;1.00;;;;;;4929769;29;20476;-76
2023/03/27 11:35:23;;;;;;;6.90;2.50;;;13.20;1.00;;;;;;4929260;29;20479;-77
2023/03/27 11:37:58;;;;;;;5.90;2.57;;;12.40;1.00;;;;;;4932185;29;20524;-76
2023/03/27 11:40:43;;;;;;;12.50;2.33;;;12.10;1.00;;;;;;4928914;29;20543;-76
2023/03/27 11:43:15;;;;;;;6.20;1.70;;;11.90;1.00;;;;;;4925409;29;20423;-77
2023/03/27 11:45:52;;;;;;;8.63;2.00;;;11.60;1.00;;;;;;4929103;29;20825;-76
2023/03/27 11:48:37;;;;;;;4.83;2.43;;;11.30;1.00;;;;;;4928243;29;20437;-75
2023/03/27 11:51:08;;;;;;;4.43;2.20;;;10.90;1.00;;;;;;4928840;29;20472;-75
2023/03/27 11:53:53;;;;;;;7.13;2.23;;;10.40;1.00;;;;;;4929746;29;20448;-76
2023/03/27 11:56:38;;;;;;;9.17;2.20;;;9.90;1.00;;;;;;4924651;29;20453;-75
2023/03/27 11:59:12;;;;;;;3.70;2.23;;;9.90;1.00;;;;;;4929717;29;20444;-77
2023/03/27 12:02:02;;;;;;;7.43;2.43;;;9.90;1.00;;;;;;4930764;29;20433;-75
2023/03/27 12:04:47;;;;;;;6.97;2.60;;;10.10;1.00;;;;;;4931918;29;20441;-76
2023/03/27 12:07:45;;;;;;;5.40;2.20;;;10.30;1.00;;;;;;4930788;29;20483;-76
2023/03/27 12:10:31;;;;;;;4.30;2.10;;;13.30;1.00;;;;;;4929373;29;20912;-77
2023/03/27 12:13:28;;;;;;;4.83;2.10;;;16.40;1.00;;;;;;4928810;29;20991;-77
2023/03/27 12:16:11;;;;;;;5.37;2.90;;;17.20;1.00;;;;;;4930506;29;20539;-76
2023/03/27 12:19:08;;;;;;;4.03;2.10;;;16.70;1.00;;;;;;4930700;29;20448;-76
2023/03/27 12:21:57;;;;;;;4.13;1.90;;;16.80;1.00;;;;;;4926451;29;20456;-75
2023/03/27 12:24:42;;;;;;;3.47;2.60;;;19.30;1.00;;;;;;4924561;29;20441;-76
2023/03/27 12:27:26;;;;;;;9.80;2.83;;;19.20;1.00;;;;;;4929803;29;20571;-76
2023/03/27 12:30:16;;;;;;;4.23;2.50;;;17.40;1.00;;;;;;4931299;29;21053;-75
2023/03/27 12:33:24;;;;;;;5.17;2.70;;;15.90;1.00;;;;;;4932732;29;20480;-78
2023/03/27 12:35:53;;;;;;;8.03;3.13;;;14.70;1.00;;;;;;4930282;29;20863;-76
2023/03/27 12:38:37;;;;;;;5.57;2.23;;;13.70;1.00;;;;;;4933157;29;20452;-76
2023/03/27 12:41:18;;;;;;;5.93;2.03;;;13.40;1.00;;;;;;4934837;29;20819;-77
2023/03/27 12:43:46;;;;;;;2.73;2.00;;;13.90;1.00;;;;;;4934638;29;20460;-76
2023/03/27 12:46:30;;;;;;;1.70;1.60;;;15.40;1.00;;;;;;4928153;29;20572;-76
2023/03/27 12:49:05;;;;;;;4.13;1.97;;;15.30;1.00;;;;;;4934079;29;20437;-76
2023/03/27 12:51:38;;;;;;;1.90;1.60;;;15.60;1.00;;;;;;4935268;29;20443;-78
2023/03/27 12:54:28;;;;;;;2.63;2.03;;;17.00;1.00;;;;;;4932412;29;20524;-78
2023/03/27 12:57:11;;;;;;;2.10;1.90;;;18.70;1.00;;;;;;4933340;29;20468;-77
2023/03/27 12:59:47;;;;;;;1.97;1.67;;;18.80;1.00;;;;;;4929612;29;20991;-77
2023/03/27 13:02:37;;;;;;;2.93;1.80;;;16.90;1.00;;;;;;4931321;29;20528;-77
2023/03/27 13:05:21;;;;;;;2.50;2.03;;;16.80;1.00;;;;;;4934754;29;20470;-77
2023/03/27 13:08:06;;;;;;;3.07;1.70;;;16.90;1.00;;;;;;4931753;29;20444;-77
2023/03/27 13:10:52;;;;;;;4.40;2.67;;;15.60;1.00;;;;;;4932764;29;20572;-79
2023/03/27 13:13:51;;;;;;;4.33;1.70;;;14.40;1.00;;;;;;4925760;29;21081;-78
2023/03/27 13:16:30;;;;;;;1.83;1.67;;;12.80;1.00;;;;;;4933431;29;20482;-76
2023/03/27 13:19:33;;;;;;;2.17;1.97;;;11.50;1.00;;;;;;4933985;29;20488;-78
2023/03/27 13:22:16;;;;;;;2.07;1.60;;;10.70;1.00;;;;;;4931415;29;20572;-77
2023/03/27 13:25:00;;;;;;;2.00;1.60;;;10.60;1.00;;;;;;4934690;29;20444;-75
2023/03/27 13:27:34;;;;;;;3.07;2.13;;;11.00;1.00;;;;;;4926011;29;20804;-74